createdAt,value
2022-10-23T00:01:45.753Z,13.13
2022-10-23T00:06:53.226Z,13.03
2022-10-23T00:12:00.321Z,12.97
2022-10-23T00:17:07.363Z,12.98
2022-10-23T00:22:14.369Z,13.02
2022-10-23T00:27:21.384Z,13.07
2022-10-23T00:32:28.691Z,13.07
2022-10-23T00:37:35.867Z,13.08
2022-10-23T00:42:42.990Z,13.08
2022-10-23T00:47:50.893Z,13.08
2022-10-23T00:53:00.676Z,13.05
2022-10-23T00:58:08.127Z,13.02
2022-10-23T01:03:16.854Z,12.98
2022-10-23T01:08:30.567Z,12.99
2022-10-23T01:13:46.103Z,13.04
2022-10-23T01:19:00.287Z,13.11
2022-10-23T01:24:28.091Z,13.14
2022-10-23T01:29:41.354Z,13.16
2022-10-23T01:34:53.231Z,13.21
2022-10-23T01:40:06.206Z,13.21
2022-10-23T01:45:20.524Z,13.21
2022-10-23T01:50:29.899Z,13.23
2022-10-23T01:55:45.456Z,13.25
2022-10-23T02:01:02.634Z,13.27
2022-10-23T02:06:10.644Z,13.33
2022-10-23T02:11:21.109Z,13.37
2022-10-23T02:16:37.676Z,13.37
2022-10-23T02:22:08.817Z,13.38
2022-10-23T02:27:19.837Z,13.40
2022-10-23T02:32:31.091Z,13.40
2022-10-23T02:37:38.185Z,13.34
2022-10-23T02:42:54.142Z,13.25
2022-10-23T02:48:06.188Z,13.19
2022-10-23T02:53:22.342Z,13.17
2022-10-23T02:58:36.129Z,13.18
2022-10-23T03:03:46.985Z,13.21
2022-10-23T03:09:00.151Z,13.21
2022-10-23T03:14:07.315Z,13.21
2022-10-23T03:19:15.591Z,13.18
2022-10-23T03:24:22.478Z,13.18
2022-10-23T03:29:29.506Z,13.21
2022-10-23T03:34:37.128Z,13.26
2022-10-23T03:39:45.390Z,13.26
2022-10-23T03:44:52.879Z,13.23
2022-10-23T03:49:59.984Z,13.18
2022-10-23T03:55:08.741Z,13.16
2022-10-23T04:00:17.461Z,13.12
2022-10-23T04:05:24.339Z,13.04
2022-10-23T04:10:34.228Z,12.99
2022-10-23T04:15:41.233Z,12.98
2022-10-23T04:20:50.204Z,13.00
2022-10-23T04:26:00.351Z,13.04
2022-10-23T04:31:07.441Z,13.05
2022-10-23T04:36:14.361Z,13.01
2022-10-23T04:41:21.325Z,12.98
2022-10-23T04:46:28.342Z,12.96
2022-10-23T04:51:35.300Z,12.95
2022-10-23T04:57:05.559Z,12.98
2022-10-23T05:02:28.942Z,12.96
2022-10-23T05:07:38.030Z,12.93
2022-10-23T05:13:04.426Z,12.89
2022-10-23T05:18:12.444Z,12.85
2022-10-23T05:23:23.412Z,12.85
2022-10-23T05:28:35.012Z,12.86
2022-10-23T05:33:41.360Z,12.85
2022-10-23T05:38:49.104Z,12.81
2022-10-23T05:43:58.175Z,12.73
2022-10-23T05:49:31.126Z,12.67
2022-10-23T05:54:56.660Z,12.64
2022-10-23T06:00:26.841Z,12.68
2022-10-23T06:05:42.621Z,12.73
2022-10-23T06:10:59.277Z,12.75
2022-10-23T06:16:13.242Z,12.75
2022-10-23T06:21:23.366Z,12.76
2022-10-23T06:26:30.834Z,12.75
2022-10-23T06:31:44.013Z,12.79
2022-10-23T06:36:52.246Z,12.80
2022-10-23T06:42:15.464Z,12.82
2022-10-23T06:47:37.069Z,12.84
2022-10-23T06:53:04.771Z,12.84
2022-10-23T06:58:12.749Z,12.84
2022-10-23T07:03:35.042Z,12.89
2022-10-23T07:08:44.826Z,12.96
2022-10-23T07:14:10.553Z,13.06
2022-10-23T07:19:18.208Z,13.10
2022-10-23T07:24:38.620Z,13.12
2022-10-23T07:29:54.426Z,13.18
2022-10-23T07:35:02.190Z,13.24
2022-10-23T07:40:13.374Z,13.33
2022-10-23T07:45:23.794Z,13.39
2022-10-23T07:50:30.990Z,13.39
2022-10-23T07:55:38.519Z,13.38
2022-10-23T08:00:54.949Z,13.37
2022-10-23T08:06:06.080Z,13.42
2022-10-23T08:11:20.458Z,13.53
2022-10-23T08:16:30.195Z,13.70
2022-10-23T08:21:43.624Z,13.85
2022-10-23T08:26:53.045Z,13.92
2022-10-23T08:32:02.788Z,13.97
2022-10-23T08:37:16.312Z,13.98
2022-10-23T08:42:27.796Z,13.99
2022-10-23T08:47:42.954Z,14.01
2022-10-23T08:53:16.728Z,14.01
2022-10-23T08:58:32.267Z,14.05
2022-10-23T09:03:39.221Z,14.09
2022-10-23T09:08:57.697Z,14.13
2022-10-23T09:14:26.932Z,14.14
2022-10-23T09:19:35.283Z,14.12
2022-10-23T09:24:51.440Z,14.13
2022-10-23T09:30:09.361Z,14.17
2022-10-23T09:35:25.285Z,14.24
2022-10-23T09:40:42.098Z,14.33
2022-10-23T09:46:00.956Z,14.43
2022-10-23T09:51:20.416Z,14.51
2022-10-23T09:56:34.710Z,14.55
2022-10-23T10:01:50.599Z,14.62
2022-10-23T10:07:22.060Z,14.74
2022-10-23T10:12:48.517Z,14.86
2022-10-23T10:18:04.152Z,15.06
2022-10-23T10:23:19.522Z,15.26
2022-10-23T10:28:39.700Z,15.41
2022-10-23T10:33:59.051Z,15.50
2022-10-23T10:39:12.369Z,15.53
2022-10-23T10:44:36.108Z,15.52
2022-10-23T10:49:48.620Z,15.54
2022-10-23T10:55:15.268Z,15.58
2022-10-23T11:00:24.477Z,15.63
2022-10-23T11:05:35.215Z,15.70
2022-10-23T11:10:46.565Z,15.73
2022-10-23T11:15:59.206Z,15.72
2022-10-23T11:21:21.789Z,15.73
2022-10-23T11:26:42.401Z,15.77
2022-10-23T11:32:07.500Z,15.87
2022-10-23T11:37:19.963Z,15.91
2022-10-23T11:42:34.213Z,15.95
2022-10-23T11:47:44.427Z,16.03
2022-10-23T11:53:16.199Z,16.18
2022-10-23T11:58:32.132Z,16.29
2022-10-23T12:03:55.340Z,16.32
2022-10-23T12:09:07.822Z,16.32
2022-10-23T12:14:35.757Z,16.32
2022-10-23T12:19:50.740Z,16.32
2022-10-23T12:25:05.951Z,16.30
2022-10-23T12:30:22.254Z,16.30
2022-10-23T12:35:49.062Z,16.29
2022-10-23T12:41:01.457Z,16.28
2022-10-23T12:46:37.255Z,16.29
2022-10-23T12:51:45.302Z,16.31
2022-10-23T12:56:53.318Z,16.30
2022-10-23T13:02:00.374Z,16.28
2022-10-23T13:07:08.157Z,16.32
2022-10-23T13:12:24.681Z,16.39
2022-10-23T13:17:41.040Z,16.36
2022-10-23T13:22:50.060Z,16.29
2022-10-23T13:28:13.286Z,16.24
2022-10-23T13:33:26.281Z,16.26
2022-10-23T13:38:35.659Z,16.29
2022-10-23T13:43:43.175Z,16.30
2022-10-23T13:48:49.241Z,16.24
2022-10-23T13:53:57.577Z,16.11
2022-10-23T13:59:04.661Z,16.01
2022-10-23T14:04:12.752Z,16.01
2022-10-23T14:09:20.585Z,16.07
2022-10-23T14:14:25.978Z,16.08
2022-10-23T14:19:34.091Z,16.03
2022-10-23T14:24:41.607Z,15.93
2022-10-23T14:29:48.702Z,15.80
2022-10-23T14:34:56.389Z,15.67
2022-10-23T14:40:01.837Z,15.56
2022-10-23T14:45:10.923Z,15.46
2022-10-23T14:50:18.115Z,15.32
2022-10-23T14:55:25.085Z,15.19
2022-10-23T15:00:33.712Z,15.09
2022-10-23T15:05:45.117Z,14.98
2022-10-23T15:10:52.687Z,14.86
2022-10-23T15:16:08.247Z,14.71
2022-10-23T15:21:16.128Z,14.62
2022-10-23T15:26:25.610Z,14.58
2022-10-23T15:31:53.596Z,14.52
2022-10-23T15:37:01.575Z,14.43
2022-10-23T15:42:07.374Z,14.29
2022-10-23T15:47:14.318Z,14.16
2022-10-23T15:52:21.386Z,14.03
2022-10-23T15:57:28.335Z,13.94
2022-10-23T16:02:35.445Z,13.84
2022-10-23T16:07:42.440Z,13.69
2022-10-23T16:12:50.198Z,13.52
2022-10-23T16:17:57.246Z,13.39
2022-10-23T16:23:04.200Z,13.30
2022-10-23T16:28:11.287Z,13.22
2022-10-23T16:33:18.348Z,13.11
2022-10-23T16:38:25.286Z,12.93
2022-10-23T16:43:32.862Z,12.77
2022-10-23T16:48:49.184Z,12.67
2022-10-23T16:53:56.685Z,12.58
2022-10-23T16:59:03.732Z,12.41
2022-10-23T17:04:10.768Z,12.27
2022-10-23T17:09:19.485Z,12.19
2022-10-23T17:14:29.352Z,12.13
2022-10-23T17:19:45.603Z,12.03
2022-10-23T17:24:54.187Z,11.92
2022-10-23T17:30:01.501Z,11.80
2022-10-23T17:35:09.980Z,11.72
2022-10-23T17:40:19.471Z,11.65
2022-10-23T17:45:28.832Z,11.55
2022-10-23T17:50:35.954Z,11.43
2022-10-23T17:55:43.513Z,11.33
2022-10-23T18:00:53.148Z,11.30
2022-10-23T18:06:00.456Z,11.29
2022-10-23T18:11:08.160Z,11.24
2022-10-23T18:16:16.144Z,11.17
2022-10-23T18:21:24.541Z,11.09
2022-10-23T18:26:35.172Z,10.95
2022-10-23T18:31:42.638Z,10.87
2022-10-23T18:36:50.911Z,10.83
2022-10-23T18:41:59.293Z,10.77
2022-10-23T18:47:07.187Z,10.68
2022-10-23T18:52:16.117Z,10.59
2022-10-23T18:57:23.421Z,10.56
2022-10-23T19:02:31.171Z,10.62
2022-10-23T19:07:39.169Z,10.65
2022-10-23T19:12:44.989Z,10.62
2022-10-23T19:17:53.011Z,10.56
2022-10-23T19:23:03.580Z,10.46
2022-10-23T19:28:10.728Z,10.42
2022-10-23T19:33:20.532Z,10.44
2022-10-23T19:38:27.864Z,10.49
2022-10-23T19:43:37.890Z,10.60
2022-10-23T19:48:46.912Z,10.68
2022-10-23T19:53:55.164Z,10.73
2022-10-23T19:59:02.404Z,10.77
2022-10-23T20:04:09.454Z,10.82
2022-10-23T20:09:16.483Z,10.87
